Time;durP1;ratioP1;P1;durP2;ratioP2;P2;SDS_P1;SDS_P2;PMS_P1;PMS_P2;Temp;Humidity;BMP_temperature;BMP_pressure;BME280_temperature;BME280_humidity;BME280_pressure;Samples;Min_cycle;Max_cycle;Signal;HPM_P1;HPM_P2
2023/06/02 00:02:07;;;;;;;;;;;20.30;60.80;;;;;;6322138;28;20028;-70
2023/06/02 00:05:07;;;;;;;;;;;20.20;60.70;;;;;;6321898;28;19909;-69
2023/06/02 00:08:08;;;;;;;;;;;20.20;60.60;;;;;;6321621;28;20382;-69
2023/06/02 00:11:10;;;;;;;;;;;20.30;60.80;;;;;;6321778;28;19909;-70
2023/06/02 00:14:10;;;;;;;;;;;20.20;60.70;;;;;;6321497;28;20026;-70
2023/06/02 00:17:12;;;;;;;;;;;20.30;60.80;;;;;;6321565;28;19912;-70
2023/06/02 00:20:12;;;;;;;;;;;20.30;60.70;;;;;;6321389;28;19932;-70
2023/06/02 00:23:13;;;;;;;;;;;20.20;60.70;;;;;;6321479;28;19942;-70
2023/06/02 00:26:14;;;;;;;;;;;20.30;60.80;;;;;;6321073;28;19919;-70
2023/06/02 00:29:14;;;;;;;;;;;20.30;60.80;;;;;;6320715;28;19931;-70
2023/06/02 00:32:15;;;;;;;;;;;20.20;60.70;;;;;;6321200;28;19995;-69
2023/06/02 00:35:15;;;;;;;;;;;20.30;60.80;;;;;;6320477;28;19915;-70
2023/06/02 00:38:16;;;;;;;;;;;20.20;60.70;;;;;;6316433;28;19909;-70
2023/06/02 00:41:16;;;;;;;;;;;20.30;60.80;;;;;;6320635;28;20003;-70
2023/06/02 00:44:17;;;;;;;;;;;20.20;60.70;;;;;;6320571;28;20495;-69
2023/06/02 00:47:17;;;;;;;;;;;20.20;60.70;;;;;;6320578;28;19973;-70
2023/06/02 00:50:18;;;;;;;;;;;20.20;60.70;;;;;;6320814;28;19991;-70
2023/06/02 00:53:18;;;;;;;;;;;20.20;60.70;;;;;;6320143;28;19912;-70
2023/06/02 00:56:22;;;;;;;;;;;20.30;60.80;;;;;;6319255;28;19990;-70
2023/06/02 00:59:23;;;;;;;;;;;20.20;60.70;;;;;;6320275;28;20302;-70
2023/06/02 01:02:24;;;;;;;;;;;20.30;60.80;;;;;;6320127;28;19924;-70
2023/06/02 01:05:24;;;;;;;;;;;20.20;60.70;;;;;;6320139;28;19937;-69
2023/06/02 01:08:25;;;;;;;;;;;20.30;60.80;;;;;;6320092;28;19908;-70
2023/06/02 01:11:26;;;;;;;;;;;20.20;60.70;;;;;;6320499;28;19908;-70
2023/06/02 01:14:27;;;;;;;;;;;20.20;60.70;;;;;;6319940;28;19996;-70
2023/06/02 01:17:31;;;;;;;;;;;20.30;60.80;;;;;;6320052;28;19909;-71
2023/06/02 01:20:32;;;;;;;;;;;20.20;60.70;;;;;;6319620;28;19908;-70
2023/06/02 01:23:33;;;;;;;;;;;20.20;60.70;;;;;;6320315;28;19916;-69
2023/06/02 01:26:35;;;;;;;;;;;20.20;60.70;;;;;;6319615;28;19912;-70
2023/06/02 01:29:36;;;;;;;;;;;20.20;60.70;;;;;;6320002;28;19912;-70
2023/06/02 01:32:40;;;;;;;;;;;20.20;60.70;;;;;;6319307;28;19999;-70
2023/06/02 01:35:43;;;;;;;;;;;20.30;60.80;;;;;;6319587;28;19994;-70
2023/06/02 01:38:45;;;;;;;;;;;20.20;60.70;;;;;;6306484;28;19919;-70
2023/06/02 01:41:45;;;;;;;;;;;20.30;60.80;;;;;;6319695;28;19958;-70
2023/06/02 01:44:46;;;;;;;;;;;20.30;60.80;;;;;;6319228;28;19980;-69
2023/06/02 01:47:47;;;;;;;;;;;20.20;60.70;;;;;;6318260;28;19938;-70
2023/06/02 01:50:47;;;;;;;;;;;20.20;60.70;;;;;;6319165;28;20410;-70
2023/06/02 01:53:48;;;;;;;;;;;20.20;60.70;;;;;;6319140;28;19915;-70
2023/06/02 01:56:48;;;;;;;;;;;20.20;60.70;;;;;;6319812;28;20386;-69
2023/06/02 01:59:49;;;;;;;;;;;20.20;60.70;;;;;;6318934;28;19912;-70
2023/06/02 02:02:50;;;;;;;;;;;20.20;60.70;;;;;;6318441;28;19920;-70
2023/06/02 02:05:50;;;;;;;;;;;20.20;60.70;;;;;;6319279;28;20354;-69
2023/06/02 02:08:51;;;;;;;;;;;20.20;60.70;;;;;;6318880;28;19908;-69
2023/06/02 02:11:51;;;;;;;;;;;20.20;60.70;;;;;;6319225;28;19953;-69
2023/06/02 02:14:56;;;;;;;;;;;20.20;60.70;;;;;;6318758;28;19912;-69
2023/06/02 02:17:58;;;;;;;;;;;20.20;60.70;;;;;;6318489;28;20020;-69
2023/06/02 02:20:59;;;;;;;;;;;20.20;60.80;;;;;;6318802;28;19912;-70
2023/06/02 02:23:59;;;;;;;;;;;20.20;60.70;;;;;;6318725;28;20018;-70
2023/06/02 02:27:00;;;;;;;;;;;20.20;60.70;;;;;;6318862;28;19908;-70
2023/06/02 02:30:00;;;;;;;;;;;20.20;60.70;;;;;;6318793;28;19908;-70
2023/06/02 02:33:02;;;;;;;;;;;20.20;60.70;;;;;;6318414;28;20286;-70
2023/06/02 02:36:03;;;;;;;;;;;20.20;60.70;;;;;;6315566;28;20007;-70
2023/06/02 02:39:03;;;;;;;;;;;20.20;60.70;;;;;;6299596;28;20394;-70
2023/06/02 02:42:04;;;;;;;;;;;20.20;60.70;;;;;;6317659;28;20005;-70
2023/06/02 02:45:05;;;;;;;;;;;20.20;60.70;;;;;;6318435;28;19923;-70
2023/06/02 02:48:07;;;;;;;;;;;20.20;61.60;;;;;;6317669;28;20405;-70
2023/06/02 02:51:07;;;;;;;;;;;20.20;60.70;;;;;;6317814;28;20377;-70
2023/06/02 02:54:08;;;;;;;;;;;20.20;60.70;;;;;;6317614;28;19987;-69
2023/06/02 02:57:08;;;;;;;;;;;20.20;60.70;;;;;;6317953;28;20401;-69
2023/06/02 03:00:09;;;;;;;;;;;20.20;60.70;;;;;;6317798;28;19912;-70
2023/06/02 03:03:10;;;;;;;;;;;20.20;60.80;;;;;;6317520;28;19928;-70
2023/06/02 03:06:13;;;;;;;;;;;20.20;60.70;;;;;;6317615;28;20215;-70
2023/06/02 03:09:15;;;;;;;;;;;20.20;60.70;;;;;;6318063;28;19908;-69
2023/06/02 03:12:15;;;;;;;;;;;20.20;60.70;;;;;;6317539;28;19915;-70
2023/06/02 03:15:16;;;;;;;;;;;20.20;60.70;;;;;;6317886;28;19908;-70
2023/06/02 03:18:16;;;;;;;;;;;20.20;60.70;;;;;;6317757;28;20284;-70
2023/06/02 03:21:17;;;;;;;;;;;20.20;60.70;;;;;;6317573;28;19908;-70
2023/06/02 03:24:18;;;;;;;;;;;20.20;60.70;;;;;;6317307;28;19916;-70
2023/06/02 03:27:19;;;;;;;;;;;20.20;60.70;;;;;;6317949;28;19912;-70
2023/06/02 03:30:20;;;;;;;;;;;20.20;60.80;;;;;;6317527;28;19971;-69
2023/06/02 03:33:21;;;;;;;;;;;20.20;60.70;;;;;;6317939;28;19908;-70
2023/06/02 03:36:21;;;;;;;;;;;20.20;60.70;;;;;;6312282;28;19947;-69
2023/06/02 03:39:22;;;;;;;;;;;20.20;60.70;;;;;;6293324;28;19920;-70
2023/06/02 03:42:22;;;;;;;;;;;20.20;60.70;;;;;;6317309;28;19912;-70
2023/06/02 03:45:23;;;;;;;;;;;20.20;60.80;;;;;;6317414;28;19916;-70
2023/06/02 03:48:23;;;;;;;;;;;20.20;60.70;;;;;;6317191;28;19916;-70
2023/06/02 03:51:24;;;;;;;;;;;20.20;60.70;;;;;;6317147;28;20430;-70
2023/06/02 03:54:24;;;;;;;;;;;20.20;60.70;;;;;;6317384;28;19916;-70
2023/06/02 03:57:25;;;;;;;;;;;20.20;60.70;;;;;;6317606;28;19908;-70
2023/06/02 04:00:38;;;;;;;;;;;20.20;60.70;;;;;;6316895;28;20451;-70
2023/06/02 04:03:41;;;;;;;;;;;20.20;60.70;;;;;;6316790;28;19924;-70
2023/06/02 04:06:41;;;;;;;;;;;20.20;60.80;;;;;;6317041;28;19908;-70
2023/06/02 04:09:42;;;;;;;;;;;20.20;60.70;;;;;;6317553;28;19915;-70
2023/06/02 04:12:43;;;;;;;;;;;20.20;60.70;;;;;;6321685;28;20070;-70
2023/06/02 04:15:43;;;;;;;;;;;20.20;60.80;;;;;;6320891;28;19908;-70
2023/06/02 04:18:44;;;;;;;;;;;20.20;60.80;;;;;;6321814;28;19912;-70
2023/06/02 04:21:45;;;;;;;;;;;20.20;60.80;;;;;;6321089;28;19913;-70
2023/06/02 04:24:46;;;;;;;;;;;20.20;60.70;;;;;;6321655;28;19920;-70
2023/06/02 04:27:47;;;;;;;;;;;20.20;60.70;;;;;;6321107;28;20479;-70
2023/06/02 04:30:48;;;;;;;;;;;20.20;60.70;;;;;;6321392;28;19909;-70
2023/06/02 04:33:49;;;;;;;;;;;20.20;60.70;;;;;;6320758;28;19912;-70
2023/06/02 04:36:50;;;;;;;;;;;20.20;60.70;;;;;;6312243;28;20363;-70
2023/06/02 04:39:51;;;;;;;;;;;20.20;60.70;;;;;;6320685;28;19912;-70
2023/06/02 04:42:52;;;;;;;;;;;20.20;60.80;;;;;;6320716;28;20303;-70
2023/06/02 04:45:52;;;;;;;;;;;20.20;61.60;;;;;;6320664;28;20023;-70
2023/06/02 04:48:53;;;;;;;;;;;20.20;60.70;;;;;;6320758;28;20398;-70
2023/06/02 04:51:55;;;;;;;;;;;20.20;60.70;;;;;;6320605;28;19915;-70
2023/06/02 04:54:55;;;;;;;;;;;20.20;60.70;;;;;;6320706;28;19916;-70
2023/06/02 04:57:56;;;;;;;;;;;20.20;60.80;;;;;;6320656;28;20357;-70
2023/06/02 05:00:57;;;;;;;;;;;20.20;60.70;;;;;;6318322;28;20006;-70
2023/06/02 05:03:57;;;;;;;;;;;20.20;60.80;;;;;;6294883;28;19920;-70
2023/06/02 05:06:57;;;;;;;;;;;20.20;60.70;;;;;;6305124;28;20251;-70
2023/06/02 05:09:58;;;;;;;;;;;20.20;60.70;;;;;;6304120;28;19959;-70
2023/06/02 05:12:59;;;;;;;;;;;20.20;60.70;;;;;;6313196;28;19915;-70
2023/06/02 05:16:00;;;;;;;;;;;20.20;60.80;;;;;;6316928;28;19916;-70
2023/06/02 05:19:00;;;;;;;;;;;20.20;60.80;;;;;;6319819;28;20006;-70
2023/06/02 05:22:01;;;;;;;;;;;20.20;60.70;;;;;;6331350;28;20376;-70
2023/06/02 05:25:02;;;;;;;;;;;20.20;60.70;;;;;;6344581;28;19916;-70
2023/06/02 05:28:02;;;;;;;;;;;20.20;60.70;;;;;;6326257;28;19916;-70
2023/06/02 05:31:03;;;;;;;;;;;20.20;60.70;;;;;;6323659;28;19908;-70
2023/06/02 05:34:03;;;;;;;;;;;20.20;60.80;;;;;;6320158;28;20178;-70
2023/06/02 05:37:04;;;;;;;;;;;20.20;60.70;;;;;;6315921;28;19915;-70
2023/06/02 05:40:05;;;;;;;;;;;20.20;60.80;;;;;;6325007;28;19931;-70
2023/06/02 05:43:05;;;;;;;;;;;20.20;60.80;;;;;;6328614;28;19916;-70
2023/06/02 05:46:06;;;;;;;;;;;20.20;60.80;;;;;;6321333;28;19961;-70
2023/06/02 05:49:06;;;;;;;;;;;20.20;60.70;;;;;;6320754;28;20365;-70
2023/06/02 05:52:07;;;;;;;;;;;20.20;60.70;;;;;;6324129;28;19909;-70
2023/06/02 05:55:08;;;;;;;;;;;20.20;60.70;;;;;;6317862;28;19960;-70
2023/06/02 05:58:08;;;;;;;;;;;20.20;60.70;;;;;;6323440;28;19916;-70
2023/06/02 06:01:09;;;;;;;;;;;20.20;60.70;;;;;;6312454;28;19958;-70
2023/06/02 06:04:09;;;;;;;;;;;20.20;60.70;;;;;;6313644;28;20425;-70
2023/06/02 06:07:10;;;;;;;;;;;20.20;60.80;;;;;;6309826;28;20030;-70
2023/06/02 06:10:10;;;;;;;;;;;20.20;60.80;;;;;;6320503;28;19966;-70
2023/06/02 06:13:11;;;;;;;;;;;20.20;60.80;;;;;;6325640;28;19908;-70
2023/06/02 06:16:11;;;;;;;;;;;20.20;60.70;;;;;;6341676;28;19908;-70
2023/06/02 06:19:12;;;;;;;;;;;20.20;60.70;;;;;;6325729;28;19919;-70
2023/06/02 06:22:12;;;;;;;;;;;20.20;60.70;;;;;;6325273;28;19915;-70
2023/06/02 06:25:13;;;;;;;;;;;20.20;60.80;;;;;;6319415;28;19943;-70
2023/06/02 06:28:13;;;;;;;;;;;20.20;60.70;;;;;;6321759;28;19958;-70
2023/06/02 06:31:14;;;;;;;;;;;20.20;60.80;;;;;;6319606;28;20366;-70
2023/06/02 06:34:15;;;;;;;;;;;20.20;60.80;;;;;;6329652;28;19940;-70
2023/06/02 06:37:15;;;;;;;;;;;20.20;60.80;;;;;;6333181;28;19915;-70
2023/06/02 06:40:16;;;;;;;;;;;20.30;60.80;;;;;;6328928;28;19908;-70
2023/06/02 06:43:16;;;;;;;;;;;20.30;60.80;;;;;;6337993;28;19916;-70
2023/06/02 06:46:17;;;;;;;;;;;20.30;60.80;;;;;;6321094;28;19915;-70
2023/06/02 06:49:17;;;;;;;;;;;20.30;60.70;;;;;;6326404;28;19912;-70
2023/06/02 06:52:18;;;;;;;;;;;20.40;60.70;;;;;;6325343;28;19952;-70
2023/06/02 06:55:18;;;;;;;;;;;20.40;60.70;;;;;;6321589;28;19919;-70
2023/06/02 06:58:19;;;;;;;;;;;20.40;60.80;;;;;;6326643;28;19922;-70
2023/06/02 07:01:20;;;;;;;;;;;20.40;60.80;;;;;;6320667;28;20000;-70
2023/06/02 07:04:21;;;;;;;;;;;20.40;60.80;;;;;;6318290;28;19925;-70
2023/06/02 07:07:21;;;;;;;;;;;20.40;60.80;;;;;;6299468;28;19957;-71
2023/06/02 07:10:22;;;;;;;;;;;20.40;60.80;;;;;;6323495;28;19908;-70
2023/06/02 07:13:25;;;;;;;;;;;20.40;60.90;;;;;;6324395;28;19908;-70
2023/06/02 07:16:25;;;;;;;;;;;20.40;60.90;;;;;;6344498;28;20331;-70
2023/06/02 07:19:26;;;;;;;;;;;20.40;60.90;;;;;;6332633;28;19909;-70
2023/06/02 07:22:27;;;;;;;;;;;20.40;60.90;;;;;;6321345;28;19908;-70
2023/06/02 07:25:27;;;;;;;;;;;20.50;61.00;;;;;;6338268;28;19920;-71
2023/06/02 07:28:28;;;;;;;;;;;20.40;60.80;;;;;;6342420;28;19943;-70
2023/06/02 07:31:28;;;;;;;;;;;20.40;60.90;;;;;;6320570;28;20009;-70
2023/06/02 07:34:29;;;;;;;;;;;20.40;60.90;;;;;;6324704;28;20439;-71
2023/06/02 07:37:29;;;;;;;;;;;20.40;60.90;;;;;;6305559;28;19908;-71
2023/06/02 07:40:30;;;;;;;;;;;20.40;61.00;;;;;;6331282;28;19919;-71
2023/06/02 07:43:30;;;;;;;;;;;20.40;61.00;;;;;;6342508;28;20484;-70
2023/06/02 07:46:31;;;;;;;;;;;20.30;60.80;;;;;;6322969;28;19946;-70
2023/06/02 07:49:33;;;;;;;;;;;20.30;60.80;;;;;;6328179;28;19990;-70
2023/06/02 07:52:34;;;;;;;;;;;20.30;60.80;;;;;;6324732;28;19919;-71
2023/06/02 07:55:35;;;;;;;;;;;20.30;60.90;;;;;;6328627;28;19908;-71
2023/06/02 07:58:35;;;;;;;;;;;20.40;61.00;;;;;;6328856;28;19908;-71
2023/06/02 08:01:36;;;;;;;;;;;20.40;61.00;;;;;;6299466;28;19909;-71
2023/06/02 08:04:36;;;;;;;;;;;20.40;61.00;;;;;;6310801;28;20437;-70
2023/06/02 08:07:38;;;;;;;;;;;20.40;61.00;;;;;;6324930;28;19930;-71
2023/06/02 08:10:38;;;;;;;;;;;20.40;61.00;;;;;;6328904;28;19912;-71
2023/06/02 08:13:39;;;;;;;;;;;20.30;60.80;;;;;;6326638;28;20523;-71
2023/06/02 08:16:41;;;;;;;;;;;20.30;60.80;;;;;;6320115;27;19950;-70
2023/06/02 08:19:42;;;;;;;;;;;20.30;60.80;;;;;;6328393;28;19908;-71
2023/06/02 08:22:44;;;;;;;;;;;20.30;60.80;;;;;;6324541;28;19919;-71
2023/06/02 08:25:46;;;;;;;;;;;20.30;60.80;;;;;;6328374;28;19951;-71
2023/06/02 08:28:49;;;;;;;;;;;20.30;60.80;;;;;;6325793;28;19908;-71
2023/06/02 08:31:50;;;;;;;;;;;20.30;60.80;;;;;;6326548;28;19999;-71
2023/06/02 08:34:51;;;;;;;;;;;20.30;60.80;;;;;;6328218;28;19930;-71
2023/06/02 08:37:53;;;;;;;;;;;20.30;60.70;;;;;;6306506;28;19956;-71
2023/06/02 08:40:54;;;;;;;;;;;20.30;60.80;;;;;;6334067;28;19908;-71
2023/06/02 08:43:55;;;;;;;;;;;20.30;60.80;;;;;;6349331;28;20385;-71
2023/06/02 08:46:57;;;;;;;;;;;20.30;60.80;;;;;;6327186;28;19916;-71
2023/06/02 08:50:01;;;;;;;;;;;20.30;60.80;;;;;;6328162;28;19908;-71
2023/06/02 08:53:03;;;;;;;;;;;20.30;60.80;;;;;;6323767;28;19931;-71
2023/06/02 08:56:04;;;;;;;;;;;20.30;60.80;;;;;;6327433;28;20017;-71
2023/06/02 08:59:05;;;;;;;;;;;20.30;60.80;;;;;;6323265;28;20386;-70
2023/06/02 09:02:06;;;;;;;;;;;20.30;60.80;;;;;;6327616;28;19919;-71
2023/06/02 09:05:07;;;;;;;;;;;20.30;61.60;;;;;;6326905;28;19920;-71
2023/06/02 09:08:11;;;;;;;;;;;20.30;60.80;;;;;;6323531;28;20468;-71
2023/06/02 09:11:16;;;;;;;;;;;20.30;60.80;;;;;;6323022;28;19934;-71
2023/06/02 09:14:19;;;;;;;;;;;20.30;60.80;;;;;;6320620;28;19953;-70
2023/06/02 09:17:24;;;;;;;;;;;20.30;60.80;;;;;;6318110;28;20008;-71
2023/06/02 09:20:30;;;;;;;;;;;20.30;60.90;;;;;;6325397;28;19915;-71
2023/06/02 09:23:42;;;;;;;;;;;20.30;60.80;;;;;;6344517;28;19946;-71
2023/06/02 09:26:52;;;;;;;;;;;20.30;60.80;;;;;;6332828;28;19912;-71
2023/06/02 09:30:01;;;;;;;;;;;20.30;60.80;;;;;;6323295;28;19908;-71
2023/06/02 09:33:07;;;;;;;;;;;20.30;60.90;;;;;;6323040;28;19908;-70
2023/06/02 09:36:34;;;;;;;;;;;20.30;60.80;;;;;;6322113;28;19923;-71
2023/06/02 09:39:38;;;;;;;;;;;20.30;61.00;;;;;;6298610;28;19908;-70
2023/06/02 09:42:43;;;;;;;;;;;20.30;60.80;;;;;;6327491;28;19912;-71
2023/06/02 09:45:47;;;;;;;;;;;20.30;60.90;;;;;;6325006;28;19953;-70
2023/06/02 09:48:59;;;;;;;;;;;20.30;60.80;;;;;;6322521;28;19961;-71
2023/06/02 09:52:13;;;;;;;;;;;20.30;60.80;;;;;;6325100;28;20316;-71
2023/06/02 09:55:16;;;;;;;;;;;20.30;60.80;;;;;;6322240;28;20363;-71
2023/06/02 09:58:17;;;;;;;;;;;20.30;60.80;;;;;;6323131;28;19973;-70
2023/06/02 10:01:17;;;;;;;;;;;20.30;60.80;;;;;;6324814;28;20003;-70
2023/06/02 10:04:18;;;;;;;;;;;20.30;60.80;;;;;;6314389;28;19947;-71
2023/06/02 10:07:39;;;;;;;;;;;20.30;60.80;;;;;;6315472;28;19912;-70
2023/06/02 10:10:41;;;;;;;;;;;20.30;60.80;;;;;;6323786;28;20400;-70
2023/06/02 10:14:00;;;;;;;;;;;20.30;60.70;;;;;;6322823;28;19915;-70
2023/06/02 10:17:04;;;;;;;;;;;20.30;60.70;;;;;;6337018;28;20002;-70
2023/06/02 10:20:04;;;;;;;;;;;20.30;60.70;;;;;;6321668;28;19990;-71
2023/06/02 10:23:23;;;;;;;;;;;20.30;60.70;;;;;;6330489;28;19939;-70
2023/06/02 10:26:38;;;;;;;;;;;20.30;60.70;;;;;;6343356;28;19924;-71
2023/06/02 10:29:41;;;;;;;;;;;20.30;60.80;;;;;;6321718;28;20370;-70
2023/06/02 10:32:43;;;;;;;;;;;20.30;60.70;;;;;;6322106;28;19926;-71
2023/06/02 10:36:00;;;;;;;;;;;20.30;60.80;;;;;;6319988;28;19931;-70
2023/06/02 10:39:20;;;;;;;;;;;20.30;60.80;;;;;;6322238;28;20381;-70
2023/06/02 10:42:22;;;;;;;;;;;20.30;60.80;;;;;;6320909;28;19909;-70
2023/06/02 10:45:27;;;;;;;;;;;20.30;61.60;;;;;;6320605;28;20002;-71
2023/06/02 10:48:40;;;;;;;;;;;20.30;60.80;;;;;;6321435;28;20534;-70
2023/06/02 10:52:01;;;;;;;;;;;20.30;60.80;;;;;;6321375;28;20453;-71
2023/06/02 10:55:07;;;;;;;;;;;20.30;60.70;;;;;;6309439;28;19969;-70
2023/06/02 10:58:12;;;;;;;;;;;20.30;60.80;;;;;;6321411;28;19912;-70
2023/06/02 11:01:13;;;;;;;;;;;20.30;60.80;;;;;;6319906;28;20388;-71
2023/06/02 11:04:23;;;;;;;;;;;20.30;60.80;;;;;;6313963;28;19920;-70
2023/06/02 11:07:28;;;;;;;;;;;20.30;60.80;;;;;;6303195;28;19962;-70
2023/06/02 11:10:44;;;;;;;;;;;20.30;60.80;;;;;;6320358;28;20332;-71
2023/06/02 11:13:55;;;;;;;;;;;20.30;60.80;;;;;;6322141;28;20019;-71
2023/06/02 11:17:14;;;;;;;;;;;20.30;60.80;;;;;;6344025;28;19919;-71
2023/06/02 11:20:15;;;;;;;;;;;20.30;60.80;;;;;;6323451;28;19908;-70
2023/06/02 11:23:19;;;;;;;;;;;20.30;60.80;;;;;;6324937;28;20394;-70
2023/06/02 11:26:21;;;;;;;;;;;20.30;60.80;;;;;;6348122;28;20354;-70
2023/06/02 11:29:21;;;;;;;;;;;20.30;60.80;;;;;;6343913;28;19907;-71
2023/06/02 11:32:22;;;;;;;;;;;20.30;60.80;;;;;;6347611;28;19915;-70
2023/06/02 11:35:25;;;;;;;;;;;20.30;60.80;;;;;;6350404;28;19955;-71
2023/06/02 11:38:31;;;;;;;;;;;20.30;60.80;;;;;;6324822;28;19961;-71
2023/06/02 11:41:32;;;;;;;;;;;20.30;60.80;;;;;;6349783;28;19918;-70
2023/06/02 11:44:32;;;;;;;;;;;20.30;60.80;;;;;;6349263;28;20340;-70
2023/06/02 11:47:33;;;;;;;;;;;20.30;60.80;;;;;;6348317;28;19912;-70
2023/06/02 11:50:33;;;;;;;;;;;20.30;60.80;;;;;;6350103;28;19915;-71
2023/06/02 11:53:35;;;;;;;;;;;20.30;60.80;;;;;;6332686;28;20418;-71
2023/06/02 11:56:36;;;;;;;;;;;20.30;60.80;;;;;;6349850;28;19908;-71
2023/06/02 11:59:36;;;;;;;;;;;20.30;60.70;;;;;;6348776;28;20285;-71
2023/06/02 12:02:38;;;;;;;;;;;20.30;60.80;;;;;;6349054;28;19920;-70
2023/06/02 12:05:43;;;;;;;;;;;20.30;60.70;;;;;;6329688;28;19923;-71
2023/06/02 12:08:46;;;;;;;;;;;20.30;60.70;;;;;;6331446;28;19985;-71
2023/06/02 12:11:46;;;;;;;;;;;20.30;60.70;;;;;;6349352;28;19934;-70
2023/06/02 12:14:47;;;;;;;;;;;20.30;60.70;;;;;;6348017;28;19908;-71
2023/06/02 12:17:48;;;;;;;;;;;20.30;60.70;;;;;;6348710;28;19947;-71
2023/06/02 12:20:48;;;;;;;;;;;20.30;60.70;;;;;;6320642;28;19907;-71
2023/06/02 12:23:49;;;;;;;;;;;20.30;60.70;;;;;;6329180;28;19920;-70
2023/06/02 12:26:49;;;;;;;;;;;20.30;60.70;;;;;;6348285;28;19919;-70
2023/06/02 12:29:50;;;;;;;;;;;20.30;60.70;;;;;;6347121;28;19908;-70
2023/06/02 12:32:50;;;;;;;;;;;20.30;60.70;;;;;;6347637;28;20010;-71
2023/06/02 12:35:51;;;;;;;;;;;20.30;60.70;;;;;;6345695;28;19999;-70
2023/06/02 12:38:51;;;;;;;;;;;20.30;60.70;;;;;;6306761;28;19912;-71
2023/06/02 12:41:52;;;;;;;;;;;20.30;60.70;;;;;;6348546;28;19981;-71
2023/06/02 12:44:54;;;;;;;;;;;20.30;60.70;;;;;;6346837;28;19915;-71
2023/06/02 12:47:55;;;;;;;;;;;20.30;60.70;;;;;;6347939;28;19919;-71
2023/06/02 12:50:55;;;;;;;;;;;20.30;60.70;;;;;;6346686;28;19915;-71
2023/06/02 12:53:56;;;;;;;;;;;20.30;60.70;;;;;;6346697;28;19908;-71
2023/06/02 12:56:56;;;;;;;;;;;20.30;60.80;;;;;;6347893;27;19908;-70
2023/06/02 12:59:57;;;;;;;;;;;20.30;60.70;;;;;;6346690;28;20006;-71
2023/06/02 13:02:57;;;;;;;;;;;20.30;60.70;;;;;;6347943;28;19927;-71
2023/06/02 13:05:59;;;;;;;;;;;20.30;60.70;;;;;;6342885;27;20372;-71
2023/06/02 13:09:00;;;;;;;;;;;20.20;60.70;;;;;;6345944;28;19908;-70
2023/06/02 13:12:00;;;;;;;;;;;20.30;60.80;;;;;;6348272;28;20372;-71
2023/06/02 13:15:02;;;;;;;;;;;20.30;60.70;;;;;;6345934;28;20003;-71
2023/06/02 13:18:03;;;;;;;;;;;20.30;60.80;;;;;;6347450;28;20508;-73
2023/06/02 13:21:04;;;;;;;;;;;20.30;60.70;;;;;;6345926;28;19914;-70
2023/06/02 13:24:04;;;;;;;;;;;20.30;60.80;;;;;;6346568;28;19938;-71
2023/06/02 13:27:05;;;;;;;;;;;20.20;60.70;;;;;;6346124;28;19954;-71
2023/06/02 13:30:06;;;;;;;;;;;20.30;60.80;;;;;;6343705;28;19915;-71
2023/06/02 13:33:06;;;;;;;;;;;20.20;60.60;;;;;;6347603;28;19943;-71
2023/06/02 13:36:07;;;;;;;;;;;20.20;60.70;;;;;;6337865;28;20363;-70
2023/06/02 13:39:07;;;;;;;;;;;20.30;60.80;;;;;;6296121;28;19912;-70
2023/06/02 13:42:08;;;;;;;;;;;20.30;60.70;;;;;;6343752;28;20285;-70
2023/06/02 13:45:09;;;;;;;;;;;20.30;60.70;;;;;;6342959;28;19958;-70
2023/06/02 13:48:09;;;;;;;;;;;20.30;60.80;;;;;;6346730;28;20431;-70
2023/06/02 13:51:10;;;;;;;;;;;20.30;60.80;;;;;;6343201;28;19915;-71
2023/06/02 13:54:10;;;;;;;;;;;20.30;60.80;;;;;;6347394;28;19947;-70
2023/06/02 13:57:11;;;;;;;;;;;20.30;60.80;;;;;;6342225;28;19931;-70
2023/06/02 14:00:11;;;;;;;;;;;20.30;60.80;;;;;;6342689;28;19962;-70
2023/06/02 14:03:12;;;;;;;;;;;20.30;60.80;;;;;;6346068;28;19920;-70
2023/06/02 14:06:13;;;;;;;;;;;20.30;60.80;;;;;;6321664;28;19912;-71
2023/06/02 14:09:13;;;;;;;;;;;20.30;60.90;;;;;;6346158;28;20026;-71
2023/06/02 14:12:14;;;;;;;;;;;20.30;60.80;;;;;;6342253;28;19993;-71
2023/06/02 14:15:15;;;;;;;;;;;20.30;60.80;;;;;;6342015;28;19908;-70
2023/06/02 14:18:15;;;;;;;;;;;20.30;60.80;;;;;;6345389;28;19908;-70
2023/06/02 14:21:16;;;;;;;;;;;20.30;60.80;;;;;;6342069;28;19914;-71
2023/06/02 14:24:16;;;;;;;;;;;20.30;60.80;;;;;;6339497;28;19941;-70
2023/06/02 14:27:17;;;;;;;;;;;20.30;60.80;;;;;;6339713;28;19908;-70
2023/06/02 14:30:17;;;;;;;;;;;20.30;60.80;;;;;;6343571;28;19912;-71
2023/06/02 14:33:18;;;;;;;;;;;20.30;60.80;;;;;;6338656;28;19958;-70
2023/06/02 14:36:18;;;;;;;;;;;20.30;60.80;;;;;;6330733;28;19943;-71
2023/06/02 14:39:19;;;;;;;;;;;20.30;60.80;;;;;;6294688;28;20283;-71
2023/06/02 14:42:19;;;;;;;;;;;20.30;60.80;;;;;;6339777;28;19911;-70
2023/06/02 14:45:20;;;;;;;;;;;20.30;60.80;;;;;;6344354;28;19923;-70
2023/06/02 14:48:25;;;;;;;;;;;20.30;60.80;;;;;;6339451;28;19908;-70
2023/06/02 14:51:25;;;;;;;;;;;20.30;60.80;;;;;;6336284;28;19916;-70
2023/06/02 14:54:26;;;;;;;;;;;20.30;60.80;;;;;;6314022;28;20370;-70
2023/06/02 14:57:27;;;;;;;;;;;20.30;60.80;;;;;;6336553;28;19995;-70
2023/06/02 15:00:28;;;;;;;;;;;20.30;60.80;;;;;;6345468;28;20358;-70
2023/06/02 15:03:28;;;;;;;;;;;20.30;60.80;;;;;;6338206;28;19935;-70
2023/06/02 15:06:31;;;;;;;;;;;20.30;60.80;;;;;;6321158;28;21785;-70
2023/06/02 15:09:32;;;;;;;;;;;20.20;60.70;;;;;;6345056;28;19908;-71
2023/06/02 15:12:32;;;;;;;;;;;20.30;60.80;;;;;;6339509;28;19908;-70
2023/06/02 15:15:33;;;;;;;;;;;20.20;60.80;;;;;;6345297;28;19962;-70
2023/06/02 15:18:34;;;;;;;;;;;20.30;60.80;;;;;;6338899;28;19929;-71
2023/06/02 15:21:37;;;;;;;;;;;20.30;60.80;;;;;;6339413;28;19991;-71
2023/06/02 15:24:37;;;;;;;;;;;20.30;60.80;;;;;;6343845;28;20333;-70
2023/06/02 15:27:40;;;;;;;;;;;20.30;60.80;;;;;;6337245;28;19969;-71
2023/06/02 15:30:40;;;;;;;;;;;20.20;60.70;;;;;;6345232;28;20002;-71
2023/06/02 15:33:41;;;;;;;;;;;20.30;60.80;;;;;;6337486;28;20353;-71
2023/06/02 15:36:41;;;;;;;;;;;20.30;60.70;;;;;;6333296;28;19996;-70
2023/06/02 15:39:42;;;;;;;;;;;20.30;60.70;;;;;;6340379;28;19919;-70
2023/06/02 15:42:42;;;;;;;;;;;20.30;60.60;;;;;;6323967;28;20255;-70
2023/06/02 15:45:43;;;;;;;;;;;20.20;60.40;;;;;;6344755;28;19995;-71
2023/06/02 15:48:44;;;;;;;;;;;20.30;60.40;;;;;;6334284;28;19946;-71
2023/06/02 15:51:45;;;;;;;;;;;20.20;60.20;;;;;;6340834;28;19962;-71
2023/06/02 15:54:46;;;;;;;;;;;20.30;60.20;;;;;;6337722;28;20369;-70
2023/06/02 15:57:53;;;;;;;;;;;20.30;60.10;;;;;;6335395;28;19919;-70
2023/06/02 16:00:53;;;;;;;;;;;20.30;60.00;;;;;;6342545;28;19908;-70
2023/06/02 16:03:54;;;;;;;;;;;20.20;59.90;;;;;;6330208;28;19920;-70
2023/06/02 16:06:55;;;;;;;;;;;20.30;59.90;;;;;;6317700;28;20015;-71
2023/06/02 16:09:55;;;;;;;;;;;20.30;59.90;;;;;;6342014;28;19912;-70
2023/06/02 16:12:56;;;;;;;;;;;20.20;59.70;;;;;;6340042;28;19914;-70
2023/06/02 16:15:57;;;;;;;;;;;20.20;59.70;;;;;;6345146;28;20212;-70
2023/06/02 16:18:58;;;;;;;;;;;20.30;59.80;;;;;;6336895;28;19943;-71
2023/06/02 16:21:59;;;;;;;;;;;20.30;59.80;;;;;;6344834;28;19908;-71
2023/06/02 16:24:59;;;;;;;;;;;20.30;59.80;;;;;;6337979;28;19931;-70
2023/06/02 16:28:00;;;;;;;;;;;20.30;59.70;;;;;;6337727;28;19908;-70
2023/06/02 16:31:00;;;;;;;;;;;20.30;59.70;;;;;;6344798;28;20006;-70
2023/06/02 16:34:00;;;;;;;;;;;20.30;59.70;;;;;;6337845;28;20320;-70
2023/06/02 16:37:01;;;;;;;;;;;20.30;59.70;;;;;;6323953;28;19955;-70
2023/06/02 16:40:02;;;;;;;;;;;20.30;59.70;;;;;;6334594;28;19915;-70
2023/06/02 16:43:02;;;;;;;;;;;20.30;59.50;;;;;;6338006;28;20336;-71
2023/06/02 16:46:02;;;;;;;;;;;20.20;59.50;;;;;;6328977;28;19915;-70
2023/06/02 16:49:03;;;;;;;;;;;20.30;59.60;;;;;;6326530;28;20397;-70
2023/06/02 16:52:05;;;;;;;;;;;20.30;59.60;;;;;;6344518;28;19934;-70
2023/06/02 16:55:06;;;;;;;;;;;20.30;59.60;;;;;;6337413;28;19908;-71
2023/06/02 16:58:07;;;;;;;;;;;20.20;59.50;;;;;;6338729;28;19908;-70
2023/06/02 17:01:07;;;;;;;;;;;20.20;59.50;;;;;;6320977;28;20222;-70
2023/06/02 17:04:08;;;;;;;;;;;20.30;59.50;;;;;;6306390;28;19924;-70
2023/06/02 17:07:08;;;;;;;;;;;20.30;59.50;;;;;;6310304;28;19912;-70
2023/06/02 17:10:09;;;;;;;;;;;20.30;59.50;;;;;;6326305;28;19915;-70
2023/06/02 17:13:09;;;;;;;;;;;20.30;59.30;;;;;;6297161;28;19912;-71
2023/06/02 17:16:10;;;;;;;;;;;20.20;59.10;;;;;;6339831;28;19970;-71
2023/06/02 17:19:11;;;;;;;;;;;20.30;59.20;;;;;;6332426;28;19914;-71
2023/06/02 17:22:12;;;;;;;;;;;20.20;59.20;;;;;;6344140;28;19976;-71
2023/06/02 17:25:12;;;;;;;;;;;20.30;59.30;;;;;;6326482;28;20339;-70
2023/06/02 17:28:13;;;;;;;;;;;20.30;59.40;;;;;;6339066;28;19990;-71
2023/06/02 17:31:13;;;;;;;;;;;20.30;59.40;;;;;;6336307;28;19954;-71
2023/06/02 17:34:14;;;;;;;;;;;20.30;59.50;;;;;;6334380;28;20412;-70
2023/06/02 17:37:14;;;;;;;;;;;20.30;59.40;;;;;;6317702;28;20363;-70